Time;durP1;ratioP1;P1;durP2;ratioP2;P2;SDS_P1;SDS_P2;PMS_P1;PMS_P2;Temp;Humidity;BMP_temperature;BMP_pressure;BME280_temperature;BME280_humidity;BME280_pressure;Samples;Min_cycle;Max_cycle;Signal;HPM_P1;HPM_P2
2023/06/21 00:01:43;;;;;;;29.77;26.50;;;18.40;99.90;;;;;;4889576;29;38386;-84
2023/06/21 00:04:09;;;;;;;33.05;27.92;;;18.40;99.90;;;;;;4894415;29;38066;-84
2023/06/21 00:06:37;;;;;;;30.17;26.83;;;18.40;99.90;;;;;;4894815;29;37888;-83
2023/06/21 00:09:03;;;;;;;32.55;26.13;;;18.30;99.90;;;;;;4894947;29;37204;-82
2023/06/21 00:11:31;;;;;;;39.63;31.33;;;18.40;99.90;;;;;;4896231;29;37333;-84
2023/06/21 00:13:57;;;;;;;35.35;29.02;;;18.30;99.90;;;;;;4895364;29;36505;-82
2023/06/21 00:16:24;;;;;;;32.95;27.60;;;18.30;99.90;;;;;;4896297;29;38080;-81
2023/06/21 00:18:50;;;;;;;36.83;30.70;;;18.30;99.90;;;;;;4892885;29;37708;-83
2023/06/21 00:21:16;;;;;;;40.13;32.15;;;18.30;99.90;;;;;;4906627;29;36923;-83
2023/06/21 00:23:43;;;;;;;39.90;32.10;;;18.20;99.90;;;;;;4909381;29;38115;-84
2023/06/21 00:26:09;;;;;;;38.08;32.13;;;18.30;99.90;;;;;;4908451;29;38388;-83
2023/06/21 00:28:36;;;;;;;40.55;33.08;;;18.30;99.90;;;;;;4899331;29;37362;-83
2023/06/21 00:31:03;;;;;;;42.30;32.40;;;18.30;99.90;;;;;;4910847;29;38055;-84
2023/06/21 00:33:29;;;;;;;40.60;34.00;;;18.30;99.90;;;;;;4917742;28;37471;-84
2023/06/21 00:35:55;;;;;;;41.88;31.35;;;18.30;99.90;;;;;;4894999;29;37942;-84
2023/06/21 00:38:21;;;;;;;43.88;35.72;;;18.30;99.90;;;;;;4914284;29;39122;-84
2023/06/21 00:40:49;;;;;;;42.50;31.63;;;18.20;99.90;;;;;;4888942;29;37935;-84
2023/06/21 00:43:16;;;;;;;38.42;31.17;;;18.20;99.90;;;;;;4908120;29;37221;-84
2023/06/21 00:45:45;;;;;;;41.88;33.00;;;18.20;99.90;;;;;;4918870;29;38792;-83
2023/06/21 00:48:12;;;;;;;47.50;37.80;;;18.20;99.90;;;;;;4910200;29;37430;-84
2023/06/21 00:50:38;;;;;;;46.80;36.20;;;18.20;99.90;;;;;;4912268;29;38037;-83
2023/06/21 00:53:04;;;;;;;44.67;36.80;;;18.20;99.90;;;;;;4906981;29;36610;-85
2023/06/21 00:55:32;;;;;;;47.05;36.70;;;18.20;99.90;;;;;;4893531;29;37975;-82
2023/06/21 00:57:59;;;;;;;42.33;34.13;;;18.20;99.90;;;;;;4899212;29;41558;-84
2023/06/21 01:03:01;;;;;;;54.40;39.63;;;18.10;99.90;;;;;;5359527;23;19927;-91
2023/06/21 01:05:30;;;;;;;58.60;42.85;;;18.10;99.90;;;;;;4925384;28;48147;-92
2023/06/21 01:08:16;;;;;;;58.72;43.80;;;18.20;99.90;;;;;;4930794;29;38533;-91
2023/06/21 01:10:55;;;;;;;61.63;44.70;;;18.10;99.90;;;;;;4908489;29;47410;-90
2023/06/21 01:13:44;;;;;;;65.57;45.08;;;18.10;99.90;;;;;;4910379;29;38190;-90
2023/06/21 01:16:14;;;;;;;57.72;42.40;;;18.20;99.90;;;;;;4887622;29;37886;-88
2023/06/21 01:18:45;;;;;;;56.97;43.42;;;18.20;99.90;;;;;;4910197;29;37277;-87
2023/06/21 01:21:16;;;;;;;59.28;42.88;;;18.10;99.90;;;;;;4931968;28;37189;-87
2023/06/21 01:23:57;;;;;;;59.60;45.50;;;18.10;99.90;;;;;;4925956;28;37603;-85
2023/06/21 01:26:48;;;;;;;57.17;43.15;;;18.10;99.90;;;;;;4908860;29;37970;-85
2023/06/21 01:29:21;;;;;;;51.08;40.00;;;18.10;99.90;;;;;;4934026;28;38613;-88
2023/06/21 01:31:50;;;;;;;60.17;45.40;;;18.10;99.90;;;;;;4917389;29;37433;-88
2023/06/21 01:34:17;;;;;;;63.13;44.67;;;18.10;99.90;;;;;;4917886;29;37338;-89
2023/06/21 01:36:44;;;;;;;55.05;43.60;;;18.00;99.90;;;;;;4912774;29;37783;-89
2023/06/21 01:39:10;;;;;;;57.53;43.25;;;18.10;99.90;;;;;;4917811;29;37658;-87
2023/06/21 01:41:37;;;;;;;55.00;43.10;;;18.10;99.90;;;;;;4940036;28;39161;-88
2023/06/21 01:44:10;;;;;;;55.83;40.45;;;18.00;99.90;;;;;;4920853;29;36677;-87
2023/06/21 01:46:37;;;;;;;58.53;43.33;;;18.10;99.90;;;;;;4929563;29;37640;-87
2023/06/21 01:49:06;;;;;;;50.92;39.45;;;18.10;99.90;;;;;;4929983;29;37188;-86
2023/06/21 01:51:35;;;;;;;48.15;38.15;;;18.00;99.90;;;;;;4919183;29;37343;-89
2023/06/21 01:54:01;;;;;;;49.75;36.92;;;18.00;99.90;;;;;;4928760;29;37553;-90
2023/06/21 01:56:37;;;;;;;50.70;37.70;;;18.00;99.90;;;;;;4916424;29;47093;-87
2023/06/21 01:59:03;;;;;;;49.05;36.67;;;18.00;99.90;;;;;;4905118;29;37711;-89
2023/06/21 02:01:31;;;;;;;52.03;35.88;;;18.00;99.90;;;;;;4912571;29;36925;-88
2023/06/21 02:04:01;;;;;;;44.45;34.63;;;18.00;99.90;;;;;;4917366;29;36553;-91
2023/06/21 02:06:29;;;;;;;40.75;32.10;;;18.10;99.90;;;;;;4920691;29;47062;-88
2023/06/21 02:09:01;;;;;;;47.67;35.00;;;18.00;99.90;;;;;;4930329;29;39304;-89
2023/06/21 02:11:28;;;;;;;40.35;33.85;;;18.00;99.90;;;;;;4913600;29;45926;-84
2023/06/21 02:13:54;;;;;;;48.13;33.88;;;18.00;99.90;;;;;;4905086;29;37284;-83
2023/06/21 02:16:34;;;;;;;41.60;32.42;;;18.00;99.90;;;;;;4905756;29;39389;-87
2023/06/21 02:19:00;;;;;;;41.00;30.83;;;18.00;99.90;;;;;;4908404;29;39141;-89
2023/06/21 02:21:28;;;;;;;49.30;33.85;;;18.00;99.90;;;;;;4911264;29;46483;-89
2023/06/21 02:23:59;;;;;;;47.33;31.95;;;18.00;99.90;;;;;;4904736;29;38071;-89
2023/06/21 02:26:25;;;;;;;39.08;30.08;;;18.00;99.90;;;;;;4910877;29;38946;-88
2023/06/21 02:28:55;;;;;;;35.50;27.67;;;18.00;99.90;;;;;;4907908;29;38648;-89
2023/06/21 02:31:22;;;;;;;40.70;32.53;;;18.00;99.90;;;;;;4911713;29;38526;-90
2023/06/21 02:33:53;;;;;;;42.33;31.30;;;17.90;99.90;;;;;;4920258;29;36630;-89
2023/06/21 02:36:19;;;;;;;40.33;30.08;;;17.90;99.90;;;;;;4923432;28;37721;-89
2023/06/21 02:38:45;;;;;;;41.42;31.58;;;17.90;99.90;;;;;;4929413;29;38866;-89
2023/06/21 02:41:11;;;;;;;44.10;31.50;;;18.00;99.90;;;;;;4916404;29;37149;-88
2023/06/21 02:43:38;;;;;;;44.10;32.28;;;18.00;99.90;;;;;;4935385;28;37578;-89
2023/06/21 02:46:04;;;;;;;41.80;32.40;;;18.00;99.90;;;;;;4919402;28;38722;-88
2023/06/21 02:48:30;;;;;;;40.45;32.17;;;18.00;99.90;;;;;;4917380;29;37791;-88
2023/06/21 02:50:56;;;;;;;45.83;32.47;;;18.00;99.90;;;;;;4934424;28;38174;-89
2023/06/21 02:53:22;;;;;;;38.42;28.13;;;18.00;99.90;;;;;;4928929;29;37366;-89
2023/06/21 02:55:48;;;;;;;38.30;27.52;;;18.00;99.90;;;;;;4926578;29;39569;-89
2023/06/21 02:58:14;;;;;;;36.20;27.95;;;18.00;99.90;;;;;;4912894;29;38249;-89
2023/06/21 03:00:41;;;;;;;31.10;24.02;;;18.00;99.90;;;;;;4920921;29;37059;-90
2023/06/21 03:03:07;;;;;;;29.48;22.20;;;17.90;99.90;;;;;;4930220;28;37541;-88
2023/06/21 03:05:39;;;;;;;20.75;17.35;;;17.90;99.90;;;;;;4910440;29;37559;-88
2023/06/21 03:08:08;;;;;;;22.13;15.18;;;17.90;99.90;;;;;;4926490;28;37441;-87
2023/06/21 03:10:36;;;;;;;19.60;14.40;;;17.80;99.90;;;;;;4910223;29;38010;-88
2023/06/21 03:13:03;;;;;;;17.52;14.20;;;17.80;99.90;;;;;;4930231;28;37292;-88
2023/06/21 03:15:29;;;;;;;19.25;14.30;;;17.80;99.90;;;;;;4908678;29;37940;-87
2023/06/21 03:17:55;;;;;;;17.55;13.50;;;17.80;99.90;;;;;;4913047;29;37125;-89
2023/06/21 03:20:24;;;;;;;18.90;11.38;;;17.80;99.90;;;;;;4916744;29;37111;-89
2023/06/21 03:22:50;;;;;;;14.35;10.13;;;17.80;99.90;;;;;;4914147;29;37249;-88
2023/06/21 03:25:17;;;;;;;10.20;7.85;;;17.80;99.90;;;;;;4914107;29;37737;-87
2023/06/21 03:27:43;;;;;;;8.75;7.38;;;17.70;99.90;;;;;;4915824;29;38242;-89
2023/06/21 03:30:16;;;;;;;9.50;6.38;;;17.70;99.90;;;;;;4924715;29;37409;-89
2023/06/21 03:32:46;;;;;;;10.65;6.45;;;17.70;99.90;;;;;;4913961;29;36587;-88
2023/06/21 03:35:16;;;;;;;9.48;5.90;;;17.70;99.90;;;;;;4917194;29;38241;-87
2023/06/21 03:37:43;;;;;;;8.93;5.80;;;17.60;99.90;;;;;;4926055;29;38115;-85
2023/06/21 03:40:13;;;;;;;8.32;5.95;;;17.60;99.90;;;;;;4910986;29;20504;-89
2023/06/21 03:42:41;;;;;;;9.40;5.43;;;17.60;99.90;;;;;;4932776;29;37093;-88
2023/06/21 03:45:08;;;;;;;6.97;5.03;;;17.60;99.90;;;;;;4934431;28;38536;-91
2023/06/21 03:47:39;;;;;;;8.55;4.93;;;17.60;99.90;;;;;;4918500;29;37035;-89
2023/06/21 03:50:06;;;;;;;9.23;5.30;;;17.60;99.90;;;;;;4933262;29;37708;-89
2023/06/21 03:52:33;;;;;;;8.38;5.65;;;17.60;99.90;;;;;;4916727;29;36198;-90
2023/06/21 03:54:59;;;;;;;7.75;4.57;;;17.70;99.90;;;;;;4914162;29;37445;-89
2023/06/21 03:57:26;;;;;;;9.77;5.40;;;17.60;99.90;;;;;;4921229;29;37337;-91
2023/06/21 03:59:55;;;;;;;6.43;4.97;;;17.60;99.90;;;;;;4920300;29;38701;-90
2023/06/21 04:02:22;;;;;;;7.85;4.82;;;17.60;99.90;;;;;;4916589;29;36220;-90
2023/06/21 04:04:48;;;;;;;9.23;4.97;;;17.50;99.90;;;;;;4915179;29;38230;-90
2023/06/21 04:07:17;;;;;;;7.45;4.70;;;17.60;99.90;;;;;;4915760;29;38684;-90
2023/06/21 04:09:44;;;;;;;6.82;4.45;;;17.60;99.90;;;;;;4909900;29;37304;-90
2023/06/21 04:12:10;;;;;;;10.27;4.15;;;17.60;99.90;;;;;;4917055;28;35168;-91
2023/06/21 04:14:36;;;;;;;9.75;4.43;;;17.60;99.90;;;;;;4922660;28;37701;-89
2023/06/21 04:17:02;;;;;;;7.68;5.18;;;17.60;99.90;;;;;;4934156;28;38509;-91
2023/06/21 04:19:28;;;;;;;6.50;4.03;;;17.60;99.90;;;;;;4933577;29;47952;-89
2023/06/21 04:21:55;;;;;;;5.10;3.45;;;17.70;99.90;;;;;;4920405;29;36220;-89
2023/06/21 04:24:21;;;;;;;6.75;3.50;;;17.70;99.90;;;;;;4913159;29;37927;-87
2023/06/21 04:26:48;;;;;;;9.52;4.18;;;17.70;99.90;;;;;;4928658;28;37074;-89
2023/06/21 04:29:16;;;;;;;6.88;3.88;;;17.70;99.90;;;;;;4919593;29;36977;-90
2023/06/21 04:31:43;;;;;;;7.15;3.78;;;17.70;99.90;;;;;;4929582;28;36193;-89
2023/06/21 04:34:09;;;;;;;8.25;3.70;;;17.70;99.90;;;;;;4916361;29;37930;-89
2023/06/21 04:36:35;;;;;;;10.48;3.60;;;17.70;99.90;;;;;;4922465;29;37891;-88
2023/06/21 04:39:02;;;;;;;10.27;3.70;;;17.70;99.90;;;;;;4918588;29;38516;-88
2023/06/21 04:41:28;;;;;;;7.65;3.38;;;17.70;99.90;;;;;;4917287;29;36326;-87
2023/06/21 04:43:54;;;;;;;7.03;3.45;;;17.70;99.90;;;;;;4906695;29;37396;-89
2023/06/21 04:46:21;;;;;;;8.40;3.88;;;17.70;99.90;;;;;;4920572;29;37471;-89
2023/06/21 04:48:48;;;;;;;5.82;3.88;;;17.70;99.90;;;;;;4915904;29;37231;-91
2023/06/21 04:51:15;;;;;;;7.20;3.28;;;17.70;99.90;;;;;;4934606;29;38022;-90
2023/06/21 04:53:45;;;;;;;6.82;3.28;;;17.80;99.90;;;;;;4918020;29;40391;-89
2023/06/21 04:56:14;;;;;;;3.88;2.70;;;17.80;99.90;;;;;;4915247;29;37074;-91
2023/06/21 04:58:40;;;;;;;6.38;3.38;;;17.70;99.90;;;;;;4919249;29;38371;-91
2023/06/21 05:01:07;;;;;;;10.00;3.38;;;17.80;99.90;;;;;;4919284;28;36224;-90
2023/06/21 05:03:33;;;;;;;5.35;2.83;;;17.90;99.90;;;;;;4917084;29;37901;-90
2023/06/21 05:06:00;;;;;;;8.02;3.10;;;17.90;99.90;;;;;;4934531;28;38397;-91
2023/06/21 05:08:26;;;;;;;5.80;3.08;;;18.00;99.90;;;;;;4929406;29;39000;-89
2023/06/21 05:10:52;;;;;;;5.00;3.33;;;18.10;99.90;;;;;;4928055;29;36184;-89
2023/06/21 05:13:19;;;;;;;6.32;2.90;;;18.20;99.90;;;;;;4917825;29;37630;-89
2023/06/21 05:15:45;;;;;;;5.43;2.97;;;18.30;99.90;;;;;;4918850;29;37142;-90
2023/06/21 05:18:11;;;;;;;7.47;2.95;;;18.40;99.90;;;;;;4925705;28;37060;-90
2023/06/21 05:20:37;;;;;;;3.25;2.70;;;18.30;99.90;;;;;;4920274;29;36324;-87
2023/06/21 05:23:03;;;;;;;9.40;3.15;;;18.30;99.90;;;;;;4916849;29;37609;-88
2023/06/21 05:25:30;;;;;;;5.88;2.92;;;18.40;99.90;;;;;;4915652;29;37710;-92
2023/06/21 05:27:57;;;;;;;5.75;2.58;;;18.40;99.90;;;;;;4916516;29;38257;-91
2023/06/21 05:30:25;;;;;;;4.00;3.00;;;18.50;99.90;;;;;;4913873;28;38018;-91
2023/06/21 05:32:51;;;;;;;5.20;2.30;;;18.60;99.90;;;;;;4930855;28;38354;-91
2023/06/21 05:35:17;;;;;;;3.47;2.45;;;18.70;99.90;;;;;;4930731;28;37398;-92
2023/06/21 05:37:47;;;;;;;4.28;1.98;;;18.70;99.90;;;;;;4937690;28;38765;-91
2023/06/21 05:40:24;;;;;;;3.60;2.15;;;19.00;99.90;;;;;;4916453;28;37420;-92
2023/06/21 05:43:00;;;;;;;4.22;2.10;;;19.20;99.90;;;;;;4912289;29;37490;-91
2023/06/21 05:45:28;;;;;;;3.33;1.98;;;19.40;99.90;;;;;;4915667;28;38673;-91
2023/06/21 05:47:58;;;;;;;4.57;1.70;;;19.60;99.90;;;;;;4914695;28;36987;-86
2023/06/21 05:50:24;;;;;;;2.83;1.73;;;19.80;99.90;;;;;;4927884;28;35199;-85
2023/06/21 05:52:50;;;;;;;3.00;2.10;;;19.80;99.90;;;;;;4931475;29;38976;-86
2023/06/21 05:55:17;;;;;;;3.00;1.80;;;19.80;99.90;;;;;;4916962;29;36382;-86
2023/06/21 05:57:43;;;;;;;2.53;1.60;;;20.00;99.90;;;;;;4913780;29;38441;-85
2023/06/21 06:00:11;;;;;;;2.53;1.60;;;20.10;99.90;;;;;;4932387;28;36883;-87
2023/06/21 06:02:37;;;;;;;2.90;1.50;;;20.10;99.90;;;;;;4913939;29;39808;-86
2023/06/21 06:05:04;;;;;;;2.42;1.58;;;20.00;99.90;;;;;;4914502;29;37075;-85
2023/06/21 06:07:30;;;;;;;4.75;1.75;;;20.00;99.90;;;;;;4913700;29;37303;-87
2023/06/21 06:09:56;;;;;;;4.45;1.80;;;20.00;99.90;;;;;;4915480;28;37009;-84
2023/06/21 06:12:22;;;;;;;3.58;1.60;;;20.10;99.90;;;;;;4913062;29;38263;-85
2023/06/21 06:14:50;;;;;;;7.30;1.95;;;20.10;99.90;;;;;;4912173;29;37514;-87
2023/06/21 06:17:17;;;;;;;5.28;1.80;;;20.10;99.90;;;;;;4929180;28;37932;-88
2023/06/21 06:19:43;;;;;;;2.35;1.55;;;20.20;99.90;;;;;;4937210;28;36132;-87
2023/06/21 06:22:09;;;;;;;5.32;1.30;;;20.20;99.90;;;;;;4932024;29;39107;-88
2023/06/21 06:24:35;;;;;;;4.88;1.42;;;20.30;99.90;;;;;;4902218;29;37233;-86
2023/06/21 06:27:01;;;;;;;3.03;1.50;;;20.40;99.90;;;;;;4907332;29;36863;-87
2023/06/21 06:29:28;;;;;;;4.38;1.35;;;20.40;99.90;;;;;;4904450;29;47256;-86
2023/06/21 06:31:54;;;;;;;3.10;1.20;;;20.60;99.90;;;;;;4915852;29;38139;-84
2023/06/21 06:34:20;;;;;;;2.65;1.50;;;20.80;99.90;;;;;;4909157;29;37680;-87
2023/06/21 06:36:46;;;;;;;3.20;1.38;;;20.90;99.90;;;;;;4912206;28;36917;-85
2023/06/21 06:39:13;;;;;;;2.08;1.13;;;21.00;99.90;;;;;;4911218;29;36799;-84
2023/06/21 06:41:39;;;;;;;3.88;1.38;;;21.10;99.90;;;;;;4921215;29;39732;-85
2023/06/21 06:44:05;;;;;;;4.05;1.35;;;21.20;99.90;;;;;;4906908;29;37049;-83
2023/06/21 06:46:31;;;;;;;1.35;1.10;;;21.10;99.90;;;;;;4930663;28;37958;-85
2023/06/21 06:48:58;;;;;;;4.13;1.83;;;21.30;99.90;;;;;;4928307;28;38049;-83
2023/06/21 06:51:24;;;;;;;3.33;1.52;;;21.40;99.90;;;;;;4913536;29;38579;-84
2023/06/21 06:53:50;;;;;;;6.95;2.20;;;21.40;99.90;;;;;;4911930;29;37451;-84
2023/06/21 06:56:16;;;;;;;4.00;1.50;;;21.50;99.90;;;;;;4931094;28;37939;-85
2023/06/21 06:58:42;;;;;;;2.97;1.52;;;21.50;99.90;;;;;;4914658;29;37245;-86
2023/06/21 07:01:09;;;;;;;3.67;1.40;;;21.70;99.90;;;;;;4931429;28;39144;-84
2023/06/21 07:03:35;;;;;;;4.72;1.30;;;21.60;94.60;;;;;;4909612;28;41507;-87
2023/06/21 07:06:01;;;;;;;3.30;1.33;;;21.50;99.90;;;;;;4907361;28;39914;-85
2023/06/21 07:08:28;;;;;;;5.70;1.35;;;21.60;95.90;;;;;;4924844;28;49156;-83
2023/06/21 07:10:54;;;;;;;4.50;1.90;;;21.70;99.10;;;;;;4913756;29;37715;-84
2023/06/21 07:13:21;;;;;;;6.25;1.45;;;21.90;99.80;;;;;;4913138;29;37616;-84
2023/06/21 07:15:47;;;;;;;9.57;1.80;;;22.30;95.70;;;;;;4906948;28;37074;-82
2023/06/21 07:18:13;;;;;;;6.70;2.38;;;22.10;93.10;;;;;;4909061;29;36576;-84
2023/06/21 07:20:41;;;;;;;5.18;1.83;;;22.20;96.40;;;;;;4925070;28;38625;-88
2023/06/21 07:23:07;;;;;;;4.43;1.83;;;22.20;93.20;;;;;;4912874;28;38748;-87
2023/06/21 07:25:33;;;;;;;7.45;2.10;;;22.20;93.00;;;;;;4906062;29;36955;-82
2023/06/21 07:27:59;;;;;;;4.00;2.17;;;21.70;97.60;;;;;;4907018;29;35748;-84
2023/06/21 07:30:25;;;;;;;5.32;1.90;;;21.90;98.60;;;;;;4904070;29;37822;-82
2023/06/21 07:32:51;;;;;;;3.00;1.85;;;21.90;98.20;;;;;;4911902;29;35924;-83
2023/06/21 07:35:18;;;;;;;6.00;2.63;;;22.10;99.90;;;;;;4913671;29;38113;-84
2023/06/21 07:37:45;;;;;;;5.07;2.30;;;22.40;99.90;;;;;;4915146;29;37267;-86
2023/06/21 07:40:16;;;;;;;4.93;1.83;;;22.70;87.70;;;;;;4925573;29;38009;-86
2023/06/21 07:42:42;;;;;;;4.13;1.90;;;22.80;88.20;;;;;;4923886;28;39460;-91
2023/06/21 07:45:09;;;;;;;7.82;2.00;;;22.90;82.60;;;;;;4912719;29;37042;-88
2023/06/21 07:47:35;;;;;;;2.40;1.80;;;23.00;84.80;;;;;;4910970;29;35970;-91
2023/06/21 07:50:01;;;;;;;4.95;2.17;;;23.10;96.10;;;;;;4920865;29;38138;-89
2023/06/21 07:52:28;;;;;;;5.78;2.42;;;23.20;93.00;;;;;;4908332;29;37446;-90
2023/06/21 07:54:54;;;;;;;2.88;2.05;;;23.30;83.40;;;;;;4904528;29;37993;-88
2023/06/21 07:57:20;;;;;;;4.93;2.15;;;22.90;90.10;;;;;;4913855;29;36305;-85
2023/06/21 07:59:46;;;;;;;3.92;2.15;;;23.00;95.30;;;;;;4911580;29;37871;-83
2023/06/21 08:02:13;;;;;;;4.32;2.42;;;23.20;90.10;;;;;;4915003;29;37533;-84
2023/06/21 08:04:42;;;;;;;5.63;2.63;;;23.50;92.80;;;;;;4912497;28;37968;-85
2023/06/21 08:07:09;;;;;;;7.75;2.42;;;23.20;72.50;;;;;;4914718;28;35863;-85
2023/06/21 08:09:35;;;;;;;5.10;2.55;;;23.30;75.10;;;;;;4912641;29;37858;-85
2023/06/21 08:12:01;;;;;;;6.35;2.75;;;23.50;73.90;;;;;;4909479;28;37417;-86
2023/06/21 08:14:27;;;;;;;6.25;2.80;;;23.80;59.70;;;;;;4909929;29;36808;-86
2023/06/21 08:16:54;;;;;;;6.72;3.10;;;23.70;68.60;;;;;;4925982;28;37430;-85
2023/06/21 08:19:20;;;;;;;5.18;2.63;;;24.00;64.90;;;;;;4920446;28;38161;-84
2023/06/21 08:21:46;;;;;;;5.90;2.90;;;24.10;55.40;;;;;;4909421;29;37324;-92
2023/06/21 08:24:12;;;;;;;6.72;3.15;;;24.40;36.10;;;;;;4914495;28;37892;-88
2023/06/21 08:26:38;;;;;;;4.05;2.47;;;24.00;46.60;;;;;;4911439;29;36291;-87
2023/06/21 08:29:04;;;;;;;6.78;3.10;;;24.00;73.30;;;;;;4925947;28;38817;-87
2023/06/21 08:31:31;;;;;;;7.75;3.40;;;23.90;77.80;;;;;;4912873;29;37017;-88
2023/06/21 08:33:57;;;;;;;5.85;3.10;;;23.90;81.10;;;;;;4911745;29;37164;-86
2023/06/21 08:36:24;;;;;;;6.47;3.08;;;24.10;59.60;;;;;;4913022;29;37411;-84
2023/06/21 08:38:50;;;;;;;6.28;3.50;;;24.40;57.00;;;;;;4915056;29;37913;-85
2023/06/21 08:41:16;;;;;;;5.97;3.35;;;24.40;53.80;;;;;;4904593;29;37807;-84
2023/06/21 08:43:42;;;;;;;5.88;3.38;;;24.30;58.00;;;;;;4908961;28;38118;-86
2023/06/21 08:46:09;;;;;;;6.78;3.38;;;24.10;56.80;;;;;;4913683;28;37418;-85
2023/06/21 08:48:40;;;;;;;4.90;3.50;;;24.20;53.50;;;;;;4934637;28;38605;-84
2023/06/21 08:51:06;;;;;;;5.68;3.30;;;24.30;47.20;;;;;;4915788;28;37525;-85
2023/06/21 08:53:43;;;;;;;8.60;3.58;;;24.20;57.20;;;;;;4921579;29;37180;-85
2023/06/21 08:56:12;;;;;;;4.68;4.00;;;24.60;58.70;;;;;;4906780;28;37273;-85
2023/06/21 08:58:57;;;;;;;6.85;3.47;;;24.90;36.00;;;;;;4927787;28;38668;-86
2023/06/21 09:01:25;;;;;;;4.95;2.85;;;24.90;49.50;;;;;;4929287;28;38825;-91
2023/06/21 09:03:57;;;;;;;5.72;3.65;;;25.10;45.60;;;;;;4923454;28;38061;-87
2023/06/21 09:06:25;;;;;;;6.10;3.95;;;24.70;47.00;;;;;;4912387;28;36134;-84
2023/06/21 09:08:52;;;;;;;6.90;4.05;;;24.80;46.40;;;;;;4915731;28;38944;-85
2023/06/21 09:11:21;;;;;;;9.05;4.32;;;24.60;44.80;;;;;;4918380;28;37455;-85
2023/06/21 09:13:49;;;;;;;8.95;4.40;;;24.40;53.90;;;;;;4913071;29;38749;-85
2023/06/21 09:16:15;;;;;;;10.13;5.03;;;24.60;65.10;;;;;;4927791;28;37240;-85
2023/06/21 09:18:43;;;;;;;8.95;5.30;;;24.90;35.10;;;;;;4924967;28;38751;-85
2023/06/21 09:21:11;;;;;;;8.45;5.22;;;24.90;36.50;;;;;;4924805;28;39421;-83
2023/06/21 09:23:39;;;;;;;12.27;5.28;;;24.40;61.00;;;;;;4909222;29;38387;-82
2023/06/21 09:26:06;;;;;;;12.13;5.32;;;24.40;43.30;;;;;;4915926;29;36177;-85
2023/06/21 09:28:33;;;;;;;8.38;5.30;;;24.30;75.30;;;;;;4903753;29;37750;-84
2023/06/21 09:30:59;;;;;;;7.43;4.63;;;24.50;58.00;;;;;;4923614;29;39846;-85
2023/06/21 09:33:26;;;;;;;8.38;4.88;;;25.00;75.90;;;;;;4931264;28;37077;-83
2023/06/21 09:35:53;;;;;;;9.65;5.38;;;25.40;46.30;;;;;;4907733;29;38580;-83
2023/06/21 09:38:23;;;;;;;8.13;4.95;;;24.90;48.20;;;;;;4922254;28;39401;-83
2023/06/21 09:40:50;;;;;;;7.68;5.40;;;24.80;56.70;;;;;;4916099;29;37890;-84
2023/06/21 09:43:19;;;;;;;9.73;5.88;;;24.80;49.10;;;;;;4926067;28;38038;-84
2023/06/21 09:46:07;;;;;;;9.77;4.78;;;25.20;59.30;;;;;;4908300;28;35554;-82
2023/06/21 09:48:38;;;;;;;5.97;4.22;;;25.30;26.60;;;;;;4923777;28;47288;-84
2023/06/21 09:51:12;;;;;;;9.75;5.35;;;25.20;31.90;;;;;;4907274;28;37668;-84
2023/06/21 09:53:43;;;;;;;6.72;4.20;;;25.20;23.60;;;;;;4907692;29;37440;-84
2023/06/21 09:56:09;;;;;;;5.57;4.00;;;25.30;19.60;;;;;;4908764;29;36606;-86
2023/06/21 09:58:35;;;;;;;7.10;4.93;;;25.10;31.60;;;;;;4915831;29;37390;-83
2023/06/21 10:01:08;;;;;;;5.63;4.35;;;25.10;22.50;;;;;;4923112;28;38400;-82
2023/06/21 10:03:34;;;;;;;10.95;5.80;;;25.00;20.00;;;;;;4912879;29;38199;-84
2023/06/21 10:06:02;;;;;;;7.13;3.83;;;24.90;27.80;;;;;;4911427;29;35979;-83
2023/06/21 10:08:33;;;;;;;3.38;3.03;;;25.30;26.80;;;;;;4904322;29;47157;-83
2023/06/21 10:11:01;;;;;;;5.60;3.50;;;25.70;1.00;;;;;;4916180;29;37246;-85
2023/06/21 10:13:36;;;;;;;8.55;4.15;;;25.60;5.00;;;;;;4928786;28;49015;-84
2023/06/21 10:16:02;;;;;;;7.13;3.47;;;25.40;18.30;;;;;;4925162;28;37051;-86
2023/06/21 10:18:30;;;;;;;5.82;3.67;;;25.70;1.00;;;;;;4915687;28;39696;-85
2023/06/21 10:21:00;;;;;;;4.13;3.22;;;25.70;1.00;;;;;;4915445;29;37737;-83
2023/06/21 10:23:32;;;;;;;7.53;3.95;;;25.60;10.50;;;;;;4921914;29;38437;-85
2023/06/21 10:26:00;;;;;;;7.47;3.95;;;25.70;6.30;;;;;;4908182;29;37736;-84
2023/06/21 10:28:28;;;;;;;7.07;4.63;;;25.90;1.00;;;;;;4914641;29;37916;-84
2023/06/21 10:30:58;;;;;;;8.43;6.60;;;25.70;1.00;;;;;;4914200;29;37865;-87
2023/06/21 10:33:29;;;;;;;9.32;6.05;;;25.40;12.30;;;;;;4914720;29;37308;-85
2023/06/21 10:35:56;;;;;;;;;;;25.40;12.70;;;;;;4924152;28;38383;-86
2023/06/21 10:38:32;;;;;;;6.57;5.88;;;25.30;14.30;;;;;;4928641;28;39797;-84
2023/06/21 10:41:04;;;;;;;8.70;4.50;;;25.30;14.40;;;;;;4913494;29;37577;-89
2023/06/21 10:43:31;;;;;;;11.00;6.70;;;25.60;9.40;;;;;;4915184;28;45907;-88
2023/06/21 10:45:58;;;;;;;9.27;6.78;;;25.90;5.00;;;;;;4923625;28;37507;-89
2023/06/21 10:48:26;;;;;;;8.85;6.60;;;25.90;6.80;;;;;;4907652;29;37975;-88
2023/06/21 10:50:52;;;;;;;8.85;5.82;;;26.10;1.00;;;;;;4933868;29;38552;-88
2023/06/21 10:53:20;;;;;;;8.55;5.85;;;25.70;9.00;;;;;;4911988;29;37293;-87
2023/06/21 10:55:48;;;;;;;10.27;6.50;;;25.50;6.90;;;;;;4922213;28;36843;-87
2023/06/21 10:58:14;;;;;;;6.78;5.63;;;25.20;2.20;;;;;;4925896;28;37965;-86
2023/06/21 11:00:43;;;;;;;9.35;7.00;;;25.50;39.30;;;;;;4921378;28;39161;-82
2023/06/21 11:03:15;;;;;;;7.13;5.93;;;26.10;7.90;;;;;;4908762;29;36797;-80
2023/06/21 11:05:42;;;;;;;7.53;6.03;;;26.30;10.00;;;;;;4901210;29;36563;-80
2023/06/21 11:08:11;;;;;;;8.15;6.03;;;25.90;1.00;;;;;;4905537;29;38413;-79
2023/06/21 11:10:42;;;;;;;9.05;6.88;;;25.80;1.00;;;;;;4927707;29;38363;-76
2023/06/21 11:13:10;;;;;;;7.13;6.07;;;25.20;7.20;;;;;;4905720;29;37157;-82
2023/06/21 11:15:41;;;;;;;9.38;5.68;;;25.60;13.30;;;;;;4904161;29;36210;-81
2023/06/21 11:18:09;;;;;;;8.98;5.22;;;25.70;27.40;;;;;;4907493;29;37830;-78
2023/06/21 11:20:56;;;;;;;11.00;5.40;;;25.80;1.00;;;;;;4910274;29;37419;-78
2023/06/21 11:23:23;;;;;;;9.82;5.70;;;26.20;3.10;;;;;;4903023;29;37424;-78
2023/06/21 11:25:51;;;;;;;6.25;5.28;;;26.40;1.00;;;;;;4907340;29;35998;-77
2023/06/21 11:28:20;;;;;;;8.23;6.53;;;26.10;1.00;;;;;;4901779;29;37691;-77
2023/06/21 11:31:02;;;;;;;7.75;4.95;;;24.70;23.60;;;;;;4905128;28;37607;-78
2023/06/21 11:33:30;;;;;;;10.85;7.13;;;25.20;4.40;;;;;;4920051;28;47254;-78
2023/06/21 11:36:06;;;;;;;9.75;5.28;;;24.90;6.70;;;;;;4924115;28;37038;-76
2023/06/21 11:38:34;;;;;;;7.07;4.63;;;25.00;10.60;;;;;;4920206;28;47129;-76
2023/06/21 11:41:01;;;;;;;5.88;5.28;;;24.90;21.90;;;;;;4921890;29;39120;-78
2023/06/21 11:43:28;;;;;;;7.25;4.70;;;25.20;1.00;;;;;;4907540;29;36871;-77
2023/06/21 11:46:00;;;;;;;7.03;4.00;;;25.20;1.00;;;;;;4910119;29;36235;-78
2023/06/21 11:48:32;;;;;;;6.30;4.47;;;25.30;9.60;;;;;;4922602;28;39701;-80
2023/06/21 11:51:09;;;;;;;5.30;4.80;;;25.60;1.00;;;;;;4919703;28;37547;-85
2023/06/21 11:53:42;;;;;;;8.77;5.13;;;25.90;1.00;;;;;;4911680;29;47312;-77
2023/06/21 11:56:10;;;;;;;5.85;3.97;;;25.00;1.00;;;;;;4922146;28;37028;-78
2023/06/21 11:58:36;;;;;;;20.88;4.88;;;24.80;8.50;;;;;;4902360;29;37863;-83
2023/06/21 12:01:03;;;;;;;5.03;3.90;;;25.30;1.00;;;;;;4907708;29;37608;-78
2023/06/21 12:03:32;;;;;;;6.53;4.75;;;25.60;1.00;;;;;;4916702;28;40814;-79
2023/06/21 12:06:02;;;;;;;8.25;4.75;;;25.80;1.00;;;;;;4895652;29;36236;-82
2023/06/21 12:08:31;;;;;;;6.53;4.47;;;25.90;1.00;;;;;;4895239;29;47424;-81
2023/06/21 12:11:07;;;;;;;5.55;4.00;;;25.70;1.00;;;;;;4906477;29;38524;-78
2023/06/21 12:13:35;;;;;;;4.13;3.45;;;25.80;1.00;;;;;;4904774;29;47133;-78
2023/06/21 12:16:03;;;;;;;5.90;3.80;;;25.80;1.00;;;;;;4902604;29;34006;-79
2023/06/21 12:18:31;;;;;;;5.63;3.25;;;25.60;1.00;;;;;;4912131;29;47300;-79
2023/06/21 12:20:59;;;;;;;6.07;4.50;;;25.80;1.00;;;;;;4913066;29;37069;-79
2023/06/21 12:23:28;;;;;;;4.30;3.60;;;25.50;1.00;;;;;;4912548;29;38310;-84
2023/06/21 12:25:56;;;;;;;4.30;3.40;;;25.90;1.00;;;;;;4911381;29;36234;-81
2023/06/21 12:28:23;;;;;;;4.97;3.85;;;26.30;1.00;;;;;;4908944;28;39623;-84
2023/06/21 12:31:15;;;;;;;7.40;4.03;;;26.10;1.00;;;;;;4917330;29;38214;-80
2023/06/21 12:33:42;;;;;;;5.45;3.80;;;26.20;1.00;;;;;;4922616;28;47273;-80
2023/06/21 12:36:23;;;;;;;5.85;4.40;;;26.00;1.00;;;;;;4928982;28;38520;-81
2023/06/21 12:38:51;;;;;;;4.47;3.10;;;25.60;1.00;;;;;;4902555;29;38857;-88
2023/06/21 12:41:19;;;;;;;5.00;3.33;;;25.50;1.00;;;;;;4909432;28;37407;-88
2023/06/21 12:43:47;;;;;;;5.10;3.28;;;25.60;1.00;;;;;;4906364;29;37254;-87
2023/06/21 12:46:13;;;;;;;4.50;2.78;;;25.70;1.00;;;;;;4911321;28;35959;-85
2023/06/21 12:48:52;;;;;;;4.57;2.80;;;25.60;1.00;;;;;;4913761;29;37670;-86
2023/06/21 12:51:25;;;;;;;3.53;2.50;;;25.90;1.00;;;;;;4910927;28;38859;-84